createdAt,value
2022-09-04T00:00:14.021Z,4.30
2022-09-04T00:02:52.543Z,4.53
2022-09-04T00:05:22.101Z,4.70
2022-09-04T00:07:54.401Z,4.60
2022-09-04T00:10:23.879Z,4.45
2022-09-04T00:12:53.246Z,4.40
2022-09-04T00:15:27.532Z,4.22
2022-09-04T00:18:00.136Z,4.90
2022-09-04T00:20:26.634Z,4.90
2022-09-04T00:22:58.361Z,4.63
2022-09-04T00:25:37.181Z,4.40
2022-09-04T00:28:11.961Z,4.45
2022-09-04T00:30:41.977Z,4.20
2022-09-04T00:33:26.189Z,4.53
2022-09-04T00:35:56.291Z,4.30
2022-09-04T00:38:41.312Z,5.35
2022-09-04T00:41:07.815Z,5.00
2022-09-04T00:43:56.241Z,4.68
2022-09-04T00:46:39.524Z,6.15
2022-09-04T00:49:24.878Z,4.82
2022-09-04T00:52:03.360Z,5.03
2022-09-04T00:55:08.268Z,4.32
2022-09-04T00:57:57.805Z,4.95
2022-09-04T01:00:26.998Z,4.65
2022-09-04T01:02:53.490Z,5.13
2022-09-04T01:05:22.920Z,5.38
2022-09-04T01:08:07.991Z,5.45
2022-09-04T01:10:40.134Z,4.70
2022-09-04T01:13:13.024Z,5.10
2022-09-04T01:15:53.166Z,5.03
2022-09-04T01:18:28.243Z,7.05
2022-09-04T01:20:57.921Z,5.70
2022-09-04T01:23:43.055Z,4.50
2022-09-04T01:26:13.697Z,5.05
2022-09-04T01:28:43.035Z,4.82
2022-09-04T01:31:10.425Z,4.43
2022-09-04T01:34:00.589Z,4.88
2022-09-04T01:36:45.727Z,4.43
2022-09-04T01:39:12.197Z,4.28
2022-09-04T01:41:46.247Z,4.60
2022-09-04T01:44:13.198Z,4.45
2022-09-04T01:46:39.550Z,4.40
2022-09-04T01:49:10.764Z,4.38
2022-09-04T01:51:40.366Z,4.45
2022-09-04T01:54:23.685Z,4.97
2022-09-04T01:56:56.245Z,4.65
2022-09-04T01:59:27.949Z,4.35
2022-09-04T02:02:01.116Z,4.30
2022-09-04T02:04:52.399Z,4.20
2022-09-04T02:07:18.970Z,4.10
2022-09-04T02:10:01.756Z,4.45
2022-09-04T02:12:38.045Z,4.20
2022-09-04T02:15:07.727Z,4.30
2022-09-04T02:17:57.525Z,4.53
2022-09-04T02:20:28.162Z,4.00
2022-09-04T02:23:03.834Z,4.43
2022-09-04T02:32:49.253Z,4.35
2022-09-04T02:35:31.485Z,4.20
2022-09-04T02:38:16.758Z,4.40
2022-09-04T02:41:00.141Z,4.60
2022-09-04T02:43:42.106Z,4.18
2022-09-04T02:46:20.946Z,4.20
2022-09-04T02:48:47.329Z,4.25
2022-09-04T02:51:29.228Z,4.63
2022-09-04T02:54:14.743Z,4.40
2022-09-04T02:56:56.385Z,3.80
2022-09-04T02:59:23.261Z,4.03
2022-09-04T03:02:01.601Z,4.43
2022-09-04T03:04:37.334Z,4.40
2022-09-04T03:12:15.932Z,4.15
2022-09-04T03:14:49.111Z,4.22
2022-09-04T03:17:19.256Z,4.10
2022-09-04T03:20:08.968Z,4.22
2022-09-04T03:22:50.642Z,4.18
2022-09-04T03:25:35.849Z,4.07
2022-09-04T03:28:02.564Z,4.30
2022-09-04T03:30:32.112Z,3.88
2022-09-04T03:33:13.087Z,4.30
2022-09-04T03:36:03.091Z,3.95
2022-09-04T03:38:48.414Z,4.35
2022-09-04T03:41:26.217Z,4.50
2022-09-04T03:44:12.050Z,3.90
2022-09-04T03:46:41.480Z,4.00
2022-09-04T03:49:14.447Z,4.15
2022-09-04T03:52:17.250Z,4.20
2022-09-04T03:55:09.877Z,4.00
2022-09-04T03:57:42.964Z,4.22
2022-09-04T04:00:15.451Z,4.07
2022-09-04T04:02:41.886Z,4.05
2022-09-04T04:05:11.054Z,4.43
2022-09-04T04:07:40.704Z,4.75
2022-09-04T04:10:16.183Z,4.13
2022-09-04T04:12:51.359Z,4.28
2022-09-04T04:15:44.449Z,4.47
2022-09-04T04:18:17.054Z,4.57
2022-09-04T04:20:51.175Z,4.20
2022-09-04T04:23:36.304Z,4.00
2022-09-04T04:26:21.686Z,4.38
2022-09-04T04:29:04.158Z,4.10
2022-09-04T04:31:44.550Z,4.30
2022-09-04T04:34:18.615Z,4.65
2022-09-04T04:36:45.623Z,4.40
2022-09-04T04:39:16.142Z,4.43
2022-09-04T04:42:05.242Z,4.53
2022-09-04T04:44:54.404Z,4.28
2022-09-04T04:47:23.565Z,4.32
2022-09-04T04:49:59.236Z,4.53
2022-09-04T04:59:55.760Z,4.38
2022-09-04T05:02:22.291Z,4.20
2022-09-04T05:05:09.620Z,4.50
2022-09-04T05:07:42.277Z,4.50
2022-09-04T05:10:08.800Z,4.75
2022-09-04T05:12:50.182Z,4.20
2022-09-04T05:15:52.988Z,4.05
2022-09-04T05:18:33.691Z,4.57
2022-09-04T05:21:07.601Z,4.00
2022-09-04T05:23:37.030Z,4.45
2022-09-04T05:26:06.360Z,4.80
2022-09-04T05:28:32.759Z,4.40
2022-09-04T05:31:05.393Z,4.53
2022-09-04T05:33:32.581Z,4.22
2022-09-04T05:36:02.455Z,4.50
2022-09-04T05:38:43.599Z,4.60
2022-09-04T05:41:30.246Z,4.95
2022-09-04T05:44:05.824Z,4.57
2022-09-04T05:46:38.462Z,5.05
2022-09-04T05:49:20.138Z,4.75
2022-09-04T05:51:55.664Z,4.45
2022-09-04T05:54:25.020Z,4.57
2022-09-04T05:56:51.430Z,4.75
2022-09-04T05:59:20.915Z,4.90
2022-09-04T06:01:52.097Z,4.70
2022-09-04T06:04:24.770Z,5.13
2022-09-04T06:06:58.714Z,4.93
2022-09-04T06:09:34.327Z,4.38
2022-09-04T06:12:04.047Z,4.68
2022-09-04T06:14:32.962Z,4.35
2022-09-04T06:16:59.344Z,4.70
2022-09-04T06:19:43.855Z,4.40
2022-09-04T06:22:19.465Z,3.92
2022-09-04T06:32:14.783Z,4.30
2022-09-04T06:34:59.930Z,4.60
2022-09-04T06:37:36.474Z,5.20
2022-09-04T06:40:10.957Z,4.65
2022-09-04T06:42:40.367Z,4.20
2022-09-04T06:45:09.846Z,4.32
2022-09-04T06:47:48.261Z,4.20
2022-09-04T06:50:30.314Z,4.32
2022-09-04T06:53:04.415Z,4.65
2022-09-04T06:55:37.205Z,4.43
2022-09-04T06:58:05.456Z,4.95
2022-09-04T07:00:42.710Z,4.90
2022-09-04T07:03:27.453Z,4.95
2022-09-04T07:05:57.327Z,4.80
2022-09-04T07:08:29.739Z,4.65
2022-09-04T07:11:11.452Z,5.18
2022-09-04T07:13:37.969Z,4.95
2022-09-04T07:16:31.091Z,4.72
2022-09-04T07:18:58.072Z,4.47
2022-09-04T07:21:34.342Z,3.67
2022-09-04T07:24:24.008Z,4.07
2022-09-04T07:26:50.403Z,4.03
2022-09-04T07:29:37.075Z,4.38
2022-09-04T07:32:21.610Z,4.10
2022-09-04T07:34:59.250Z,4.03
2022-09-04T07:37:47.125Z,3.60
2022-09-04T07:40:13.530Z,4.00
2022-09-04T07:42:43.241Z,3.50
2022-09-04T07:45:16.634Z,3.60
2022-09-04T07:47:46.196Z,3.63
2022-09-04T07:50:22.012Z,3.60
2022-09-04T07:53:11.146Z,4.00
2022-09-04T07:55:38.168Z,3.83
2022-09-04T07:58:40.221Z,3.63
2022-09-04T08:01:16.440Z,3.58
2022-09-04T08:04:09.515Z,3.40
2022-09-04T08:06:38.919Z,3.50
2022-09-04T08:09:05.330Z,3.13
2022-09-04T08:11:38.031Z,2.30
2022-09-04T08:14:14.264Z,2.25
2022-09-04T08:16:47.833Z,2.95
2022-09-04T08:19:16.184Z,2.35
2022-09-04T08:21:43.654Z,2.40
2022-09-04T08:24:38.537Z,2.45
2022-09-04T08:27:09.292Z,3.10
2022-09-04T08:29:45.527Z,2.90
2022-09-04T08:32:17.889Z,3.15
2022-09-04T08:34:51.656Z,3.00
2022-09-04T08:37:29.187Z,2.67
2022-09-04T08:39:55.602Z,2.55
2022-09-04T08:42:22.306Z,2.67
2022-09-04T08:44:48.640Z,2.85
2022-09-04T08:47:28.548Z,2.75
2022-09-04T08:50:04.083Z,2.60
2022-09-04T08:52:45.986Z,2.47
2022-09-04T08:55:32.866Z,2.58
2022-09-04T08:58:06.078Z,2.53
2022-09-04T09:00:51.466Z,2.70
2022-09-04T09:03:17.907Z,2.50
2022-09-04T09:05:47.385Z,2.58
2022-09-04T09:08:13.818Z,2.30
2022-09-04T09:10:43.281Z,2.45
2022-09-04T09:13:31.478Z,2.60
2022-09-04T09:15:57.914Z,2.30
2022-09-04T09:18:27.057Z,2.72
2022-09-04T09:21:05.439Z,2.42
2022-09-04T09:23:37.687Z,3.25
2022-09-04T09:26:23.598Z,2.72
2022-09-04T09:29:08.840Z,2.40
2022-09-04T09:32:03.783Z,2.65
2022-09-04T09:34:30.535Z,2.63
2022-09-04T09:37:09.058Z,2.40
2022-09-04T09:39:38.685Z,2.45
2022-09-04T09:42:23.667Z,2.53
2022-09-04T09:45:13.388Z,2.90
2022-09-04T09:47:59.994Z,2.55
2022-09-04T09:50:45.198Z,2.58
2022-09-04T09:53:30.498Z,2.63
2022-09-04T09:56:14.775Z,2.03
2022-09-04T09:59:00.033Z,2.22
2022-09-04T10:01:34.038Z,2.93
2022-09-04T10:04:40.292Z,2.45
2022-09-04T10:07:14.578Z,2.60
2022-09-04T10:09:40.988Z,2.53
2022-09-04T10:12:30.908Z,2.55
2022-09-04T10:14:57.390Z,2.38
2022-09-04T10:17:42.304Z,2.30
2022-09-04T10:20:18.097Z,2.33
2022-09-04T10:23:04.373Z,2.22
2022-09-04T10:25:39.950Z,2.20
2022-09-04T10:28:26.008Z,2.00
2022-09-04T10:31:10.741Z,2.17
2022-09-04T10:33:57.079Z,2.07
2022-09-04T10:36:40.400Z,2.10
2022-09-04T10:39:31.950Z,2.13
2022-09-04T10:42:05.615Z,2.13
2022-09-04T10:44:34.734Z,2.10
2022-09-04T10:47:04.242Z,2.20
2022-09-04T10:49:31.206Z,2.05
2022-09-04T10:51:58.992Z,1.90
2022-09-04T10:54:38.471Z,2.30
2022-09-04T10:57:13.861Z,2.40
2022-09-04T11:02:12.932Z,2.15
2022-09-04T11:04:54.707Z,2.30
2022-09-04T11:07:30.453Z,2.17
2022-09-04T11:09:56.803Z,2.08
2022-09-04T11:12:26.263Z,2.00
2022-09-04T11:14:58.852Z,2.00
2022-09-04T11:17:30.455Z,2.15
2022-09-04T11:20:18.360Z,2.08
2022-09-04T11:23:05.187Z,2.10
2022-09-04T11:25:44.400Z,1.80
2022-09-04T11:28:15.756Z,1.90
2022-09-04T11:30:48.462Z,1.92
2022-09-04T11:33:37.242Z,1.80
2022-09-04T11:36:05.851Z,1.90
2022-09-04T11:38:51.130Z,2.08
2022-09-04T11:41:36.389Z,2.03
2022-09-04T11:44:02.789Z,1.98
2022-09-04T11:46:47.478Z,2.00
2022-09-04T11:49:38.866Z,1.80
2022-09-04T11:52:31.848Z,1.73
2022-09-04T11:55:04.226Z,1.90
2022-09-04T11:57:54.415Z,1.83
2022-09-04T12:00:21.211Z,1.60
2022-09-04T12:02:57.799Z,1.80
2022-09-04T12:05:45.734Z,2.00
2022-09-04T12:08:12.077Z,1.80
2022-09-04T12:10:43.257Z,1.90
2022-09-04T12:13:32.996Z,1.60
2022-09-04T12:16:08.734Z,1.40
2022-09-04T12:18:45.224Z,2.00
2022-09-04T12:21:12.747Z,1.95
2022-09-04T12:23:48.346Z,1.77
2022-09-04T12:26:30.080Z,1.70
2022-09-04T12:28:59.440Z,2.00
2022-09-04T12:31:43.472Z,1.73
2022-09-04T12:34:34.080Z,1.65
2022-09-04T12:37:16.359Z,1.90
2022-09-04T12:39:43.115Z,1.70
2022-09-04T12:42:26.426Z,1.80
2022-09-04T12:44:55.617Z,1.50
2022-09-04T12:47:25.207Z,1.70
2022-09-04T12:50:03.998Z,1.92
2022-09-04T12:52:33.609Z,1.67
2022-09-04T12:55:04.059Z,1.88
2022-09-04T12:57:45.578Z,1.80
2022-09-04T13:00:17.630Z,1.45
2022-09-04T13:03:05.160Z,1.50
2022-09-04T13:05:43.317Z,1.90
2022-09-04T13:08:26.355Z,2.08
2022-09-04T13:10:54.258Z,1.98
2022-09-04T13:13:33.909Z,1.75
2022-09-04T13:16:23.529Z,1.92
2022-09-04T13:19:02.326Z,1.70
2022-09-04T13:21:34.162Z,1.88
2022-09-04T13:24:07.676Z,1.80
2022-09-04T13:26:36.793Z,1.90
2022-09-04T13:29:03.219Z,1.70
2022-09-04T13:31:43.819Z,1.80
2022-09-04T13:34:16.971Z,1.88
2022-09-04T13:37:07.144Z,1.75
2022-09-04T13:39:44.211Z,1.80
2022-09-04T13:42:13.415Z,2.00
2022-09-04T13:44:54.971Z,1.52
2022-09-04T13:47:32.150Z,1.80
2022-09-04T13:50:08.346Z,1.80
2022-09-04T13:55:04.141Z,1.70
2022-09-04T13:57:33.528Z,1.85
2022-09-04T14:00:03.852Z,1.63
2022-09-04T14:02:31.732Z,1.85
2022-09-04T14:05:18.401Z,2.00
2022-09-04T14:07:46.444Z,2.03
2022-09-04T14:10:26.717Z,1.85
2022-09-04T14:13:05.321Z,2.00
2022-09-04T14:15:47.091Z,2.00
2022-09-04T14:18:22.438Z,1.90
2022-09-04T14:21:06.398Z,2.00
2022-09-04T14:23:34.464Z,2.00
2022-09-04T14:26:13.045Z,2.03
2022-09-04T14:28:46.542Z,2.08
2022-09-04T14:31:17.731Z,1.88
2022-09-04T14:33:56.349Z,2.10
2022-09-04T14:36:27.471Z,2.08
2022-09-04T14:39:14.699Z,2.10
2022-09-04T14:41:42.969Z,2.03
2022-09-04T14:44:27.141Z,1.92
2022-09-04T14:47:07.351Z,1.90
2022-09-04T14:49:40.479Z,1.83
2022-09-04T14:52:28.033Z,1.90
2022-09-04T14:54:55.582Z,2.17
2022-09-04T14:57:30.743Z,2.10
2022-09-04T15:00:01.939Z,2.00
2022-09-04T15:02:33.326Z,2.00
2022-09-04T15:05:03.305Z,1.80
2022-09-04T15:07:49.117Z,2.00
2022-09-04T15:10:24.271Z,3.30
2022-09-04T15:12:58.440Z,2.28
2022-09-04T15:15:51.454Z,2.50
2022-09-04T15:18:24.949Z,2.10
2022-09-04T15:21:03.945Z,2.22
2022-09-04T15:23:50.557Z,2.30
2022-09-04T15:26:26.255Z,2.20
2022-09-04T15:28:56.170Z,1.95
2022-09-04T15:31:33.525Z,2.08
2022-09-04T15:34:01.657Z,2.00
2022-09-04T15:36:28.185Z,2.33
2022-09-04T15:38:56.967Z,2.10
2022-09-04T15:41:24.087Z,2.10
2022-09-04T15:43:52.109Z,2.45
2022-09-04T15:46:21.290Z,2.22
2022-09-04T15:48:53.166Z,2.00
2022-09-04T15:51:31.716Z,2.30
2022-09-04T15:54:07.567Z,2.50
2022-09-04T15:56:36.965Z,2.58
2022-09-04T15:59:15.936Z,2.20
2022-09-04T16:01:51.597Z,2.17
2022-09-04T16:04:33.330Z,2.55
2022-09-04T16:07:20.617Z,2.33
2022-09-04T16:09:50.038Z,2.05
2022-09-04T16:12:22.121Z,2.10
2022-09-04T16:15:02.366Z,2.28
2022-09-04T16:17:30.507Z,2.28
2022-09-04T16:19:59.906Z,2.25
2022-09-04T16:22:33.085Z,2.20
2022-09-04T16:25:06.960Z,2.20
2022-09-04T16:27:38.376Z,2.60
2022-09-04T16:30:05.492Z,2.40
2022-09-04T16:32:34.131Z,2.50
2022-09-04T16:35:19.182Z,2.50
2022-09-04T16:37:51.565Z,2.33
2022-09-04T16:40:25.264Z,2.65
2022-09-04T16:43:00.017Z,2.45
2022-09-04T16:45:45.337Z,2.10
2022-09-04T16:48:34.901Z,2.17
2022-09-04T16:51:39.512Z,2.13
2022-09-04T16:54:05.322Z,2.28
2022-09-04T16:56:40.536Z,2.00
2022-09-04T16:59:24.949Z,2.30
2022-09-04T17:01:51.640Z,2.35
2022-09-04T17:04:40.345Z,2.22
2022-09-04T17:07:07.357Z,2.60
2022-09-04T17:09:41.821Z,2.30
2022-09-04T17:12:34.755Z,2.03
2022-09-04T17:15:19.768Z,2.22
2022-09-04T17:17:47.311Z,2.33
2022-09-04T17:20:22.789Z,2.20
2022-09-04T17:29:03.221Z,2.40
2022-09-04T17:29:07.712Z,2.10
2022-09-04T17:29:34.321Z,2.58
2022-09-04T17:32:10.198Z,2.40
2022-09-04T17:40:32.877Z,2.60
2022-09-04T17:40:47.641Z,2.50
2022-09-04T17:41:40.012Z,2.70
2022-09-04T17:44:04.379Z,2.80
2022-09-04T17:48:59.006Z,2.55
2022-09-04T17:51:27.360Z,2.83
2022-09-04T17:54:01.476Z,2.90
2022-09-04T17:56:30.850Z,3.15
2022-09-04T17:58:57.169Z,2.53
2022-09-04T18:01:41.815Z,2.95
2022-09-04T18:04:26.993Z,3.28
2022-09-04T18:06:57.783Z,2.38
2022-09-04T18:09:43.152Z,2.97
2022-09-04T18:12:20.285Z,2.67
2022-09-04T18:15:27.638Z,2.55
2022-09-04T18:18:13.124Z,3.00
2022-09-04T18:20:39.624Z,3.03
2022-09-04T18:23:06.249Z,2.33
2022-09-04T18:25:51.332Z,2.47
2022-09-04T18:28:27.742Z,3.10
2022-09-04T18:37:07.132Z,2.78
2022-09-04T18:37:17.226Z,2.67
2022-09-04T18:37:25.133Z,2.30
2022-09-04T18:39:34.864Z,2.78
2022-09-04T18:45:38.987Z,2.85
2022-09-04T18:50:22.646Z,3.22
2022-09-04T18:50:49.245Z,2.95
2022-09-04T18:51:12.719Z,2.90
2022-09-04T18:53:32.240Z,3.88
2022-09-04T18:56:20.577Z,8.10
2022-09-04T18:58:57.346Z,6.75
2022-09-04T19:01:27.162Z,4.80
2022-09-04T19:03:56.749Z,4.75
2022-09-04T19:06:36.658Z,4.20
2022-09-04T19:09:11.593Z,4.53
2022-09-04T19:11:43.087Z,4.67
2022-09-04T19:14:15.458Z,5.10
2022-09-04T19:16:49.153Z,5.28
2022-09-04T19:19:17.234Z,5.20
2022-09-04T19:21:57.881Z,5.13
2022-09-04T19:24:41.855Z,5.25
2022-09-04T19:27:28.210Z,4.75
2022-09-04T19:29:57.397Z,4.65
2022-09-04T19:33:00.201Z,5.18
2022-09-04T19:35:42.017Z,5.18
2022-09-04T19:45:02.377Z,5.55
2022-09-04T19:46:08.898Z,5.53
2022-09-04T19:46:18.136Z,5.20
2022-09-04T19:47:28.558Z,5.15
2022-09-04T19:53:22.272Z,5.15
2022-09-04T19:53:33.359Z,4.53
2022-09-04T19:55:41.157Z,5.00
2022-09-04T19:58:09.120Z,4.90
2022-09-04T20:01:01.817Z,4.70
2022-09-04T20:03:30.200Z,4.88
2022-09-04T20:06:21.506Z,5.07
2022-09-04T20:09:01.068Z,4.75
2022-09-04T20:11:43.359Z,4.30
2022-09-04T20:14:15.406Z,4.93
2022-09-04T20:16:51.900Z,4.53
2022-09-04T20:19:27.863Z,4.72
2022-09-04T20:22:04.881Z,5.05
2022-09-04T20:24:40.534Z,5.28
2022-09-04T20:32:09.900Z,9.05
2022-09-04T20:34:42.179Z,13.30
2022-09-04T20:37:26.600Z,8.75
2022-09-04T20:39:59.316Z,10.90
2022-09-04T20:42:33.676Z,6.70
2022-09-04T20:48:22.561Z,8.00
2022-09-04T20:52:42.470Z,5.20
2022-09-04T20:52:58.420Z,5.18
2022-09-04T20:53:41.025Z,5.50
2022-09-04T20:56:09.365Z,5.32
2022-09-04T21:03:13.458Z,5.20
2022-09-04T21:03:19.029Z,6.05
2022-09-04T21:04:51.663Z,5.35
2022-09-04T21:07:33.782Z,5.60
2022-09-04T21:10:13.325Z,6.13
2022-09-04T21:12:45.926Z,6.13
2022-09-04T21:15:31.026Z,5.47
2022-09-04T21:18:18.387Z,6.03
2022-09-04T21:20:59.203Z,6.03
2022-09-04T21:23:41.142Z,6.20
2022-09-04T21:26:23.221Z,5.88
2022-09-04T21:29:10.976Z,5.57
2022-09-04T21:31:44.679Z,6.03
2022-09-04T21:34:12.005Z,5.72
2022-09-04T21:36:46.890Z,6.75
2022-09-04T21:39:19.750Z,6.20
2022-09-04T21:42:16.655Z,6.70
2022-09-04T21:44:55.923Z,6.00
2022-09-04T21:47:30.383Z,6.13
2022-09-04T21:49:56.906Z,5.95
2022-09-04T21:52:41.343Z,6.35
2022-09-04T22:01:00.055Z,6.10
2022-09-04T22:02:38.833Z,6.72
2022-09-04T22:02:43.611Z,5.90
2022-09-04T22:03:51.806Z,5.85
2022-09-04T22:06:45.973Z,5.85
2022-09-04T22:13:32.522Z,5.97
2022-09-04T22:13:42.963Z,6.18
2022-09-04T22:15:18.907Z,5.45
2022-09-04T22:18:04.054Z,5.35
2022-09-04T22:20:49.107Z,5.28
2022-09-04T22:23:34.282Z,5.03
2022-09-04T22:26:23.818Z,5.45
2022-09-04T22:28:59.722Z,5.53
2022-09-04T22:31:29.401Z,5.70
2022-09-04T22:34:17.192Z,5.18
2022-09-04T22:36:45.203Z,5.30
2022-09-04T22:39:31.495Z,5.30
2022-09-04T22:42:10.697Z,5.28
2022-09-04T22:44:51.292Z,5.18
2022-09-04T22:47:36.343Z,5.43
2022-09-04T22:50:17.924Z,5.40
2022-09-04T22:52:47.528Z,5.65
2022-09-04T22:55:38.385Z,5.63
2022-09-04T22:58:03.346Z,5.80
2022-09-04T23:00:31.625Z,5.90
2022-09-04T23:03:09.877Z,5.65
2022-09-04T23:05:36.607Z,5.68
2022-09-04T23:13:46.601Z,6.10
2022-09-04T23:13:49.762Z,5.95
2022-09-04T23:14:06.439Z,5.80
2022-09-04T23:16:46.564Z,5.97
2022-09-04T23:23:57.951Z,5.80
2022-09-04T23:26:33.874Z,6.55
2022-09-04T23:26:41.904Z,6.35
2022-09-04T23:28:02.638Z,6.00
2022-09-04T23:30:57.981Z,6.63
2022-09-04T23:33:41.470Z,7.10
2022-09-04T23:36:35.066Z,6.20
2022-09-04T23:39:12.056Z,6.90
2022-09-04T23:41:53.367Z,6.45
2022-09-04T23:44:35.103Z,6.72
2022-09-04T23:47:46.750Z,6.50
2022-09-04T23:50:03.179Z,6.72
2022-09-04T23:52:49.215Z,6.78
2022-09-04T23:55:15.942Z,6.95
2022-09-04T23:57:52.613Z,7.07
